Time;durP1;ratioP1;P1;durP2;ratioP2;P2;SDS_P1;SDS_P2;PMS_P1;PMS_P2;Temp;Humidity;BMP_temperature;BMP_pressure;BME280_temperature;BME280_humidity;BME280_pressure;Samples;Min_cycle;Max_cycle;Signal;HPM_P1;HPM_P2
2022/02/23 00:02:10;;;;;;;10.68;7.05;;;;;;;;;;5001299;28;20276;-58
2022/02/23 00:04:35;;;;;;;8.60;6.57;;;;;;;;;;5003122;28;20025;-58
2022/02/23 00:07:00;;;;;;;9.80;7.05;;;;;;;;;;5002969;28;20445;-57
2022/02/23 00:09:26;;;;;;;9.40;6.75;;;;;;;;;;4986762;28;20037;-57
2022/02/23 00:11:51;;;;;;;10.10;6.97;;;;;;;;;;5002815;28;20268;-58
2022/02/23 00:14:16;;;;;;;8.60;6.90;;;;;;;;;;5002788;28;20261;-57
2022/02/23 00:16:41;;;;;;;9.77;7.27;;;;;;;;;;5002966;28;20273;-58
2022/02/23 00:19:07;;;;;;;8.80;6.63;;;;;;;;;;4969161;28;20057;-57
2022/02/23 00:21:33;;;;;;;8.68;6.82;;;;;;;;;;5002244;28;20778;-57
2022/02/23 00:23:58;;;;;;;9.25;6.65;;;;;;;;;;5003053;28;20105;-58
2022/02/23 00:26:23;;;;;;;9.13;6.87;;;;;;;;;;4990926;28;20302;-57
2022/02/23 00:28:49;;;;;;;8.77;6.73;;;;;;;;;;5001339;28;20269;-62
2022/02/23 00:31:14;;;;;;;8.48;6.10;;;;;;;;;;4986160;28;20038;-57
2022/02/23 00:33:39;;;;;;;8.88;6.50;;;;;;;;;;5002531;28;20440;-57
2022/02/23 00:36:04;;;;;;;9.57;6.97;;;;;;;;;;5002785;28;20014;-58
2022/02/23 00:38:29;;;;;;;8.97;5.97;;;;;;;;;;5002262;28;20408;-57
2022/02/23 00:40:55;;;;;;;9.37;6.77;;;;;;;;;;4988815;28;20270;-57
2022/02/23 00:43:20;;;;;;;8.55;6.38;;;;;;;;;;4999744;28;20101;-56
2022/02/23 00:45:46;;;;;;;8.60;6.13;;;;;;;;;;5002603;28;20536;-56
2022/02/23 00:48:11;;;;;;;9.43;6.40;;;;;;;;;;5002488;28;20124;-57
2022/02/23 00:50:36;;;;;;;7.57;6.03;;;;;;;;;;5001761;28;20097;-57
2022/02/23 00:53:01;;;;;;;7.88;6.00;;;;;;;;;;5002076;28;20129;-57
2022/02/23 00:55:27;;;;;;;8.88;6.65;;;;;;;;;;5002536;28;20049;-57
2022/02/23 00:57:52;;;;;;;9.27;6.57;;;;;;;;;;5002079;28;20022;-57
2022/02/23 01:00:17;;;;;;;8.57;6.30;;;;;;;;;;5002718;28;20130;-57
2022/02/23 01:02:42;;;;;;;9.30;6.03;;;;;;;;;;5002166;28;20296;-57
2022/02/23 01:05:08;;;;;;;9.02;6.60;;;;;;;;;;5001804;28;20026;-57
2022/02/23 01:07:33;;;;;;;8.77;6.15;;;;;;;;;;4984155;28;20053;-57
2022/02/23 01:09:58;;;;;;;8.83;6.73;;;;;;;;;;5001870;28;20459;-57
2022/02/23 01:12:23;;;;;;;8.87;6.37;;;;;;;;;;5001606;28;20350;-57
2022/02/23 01:14:49;;;;;;;9.20;6.20;;;;;;;;;;5001124;28;20037;-57
2022/02/23 01:17:14;;;;;;;7.83;6.13;;;;;;;;;;5001066;28;20273;-57
2022/02/23 01:19:39;;;;;;;7.80;6.37;;;;;;;;;;4985865;28;20949;-57
2022/02/23 01:22:04;;;;;;;7.23;5.73;;;;;;;;;;5001788;28;20059;-58
2022/02/23 01:24:30;;;;;;;8.30;5.73;;;;;;;;;;5001372;28;20014;-57
2022/02/23 01:26:55;;;;;;;7.75;5.82;;;;;;;;;;5001204;28;20305;-57
2022/02/23 01:29:20;;;;;;;7.30;5.90;;;;;;;;;;5001102;28;20029;-57
2022/02/23 01:31:45;;;;;;;8.20;6.10;;;;;;;;;;5000927;28;20307;-58
2022/02/23 01:34:10;;;;;;;8.27;5.90;;;;;;;;;;5000495;28;20280;-58
2022/02/23 01:36:36;;;;;;;6.43;5.10;;;;;;;;;;5001245;28;20033;-57
2022/02/23 01:39:01;;;;;;;7.37;5.67;;;;;;;;;;4986166;28;20277;-59
2022/02/23 01:41:27;;;;;;;8.20;6.10;;;;;;;;;;4999406;28;20040;-58
2022/02/23 01:43:52;;;;;;;7.53;5.47;;;;;;;;;;5000747;28;20424;-57
2022/02/23 01:46:18;;;;;;;7.30;5.50;;;;;;;;;;5001331;28;20219;-57
2022/02/23 01:48:43;;;;;;;7.13;5.47;;;;;;;;;;5000917;28;20881;-57
2022/02/23 01:51:08;;;;;;;7.18;5.72;;;;;;;;;;5001161;28;20284;-58
2022/02/23 01:53:33;;;;;;;7.03;5.50;;;;;;;;;;5000717;28;20504;-57
2022/02/23 01:55:59;;;;;;;7.65;5.65;;;;;;;;;;5000790;28;20738;-57
2022/02/23 01:58:24;;;;;;;6.77;5.13;;;;;;;;;;4990654;28;20109;-57
2022/02/23 02:00:49;;;;;;;6.87;5.00;;;;;;;;;;4994568;28;20570;-57
2022/02/23 02:03:14;;;;;;;6.63;5.23;;;;;;;;;;4982880;28;20071;-57
2022/02/23 02:05:40;;;;;;;6.85;5.60;;;;;;;;;;5000710;28;20775;-58
2022/02/23 02:08:05;;;;;;;6.72;5.50;;;;;;;;;;5000802;28;20416;-57
2022/02/23 02:10:30;;;;;;;6.73;5.17;;;;;;;;;;4998034;28;20066;-57
2022/02/23 02:12:56;;;;;;;6.90;5.65;;;;;;;;;;4989614;28;20732;-57
2022/02/23 02:15:21;;;;;;;7.20;5.03;;;;;;;;;;4982093;28;20032;-57
2022/02/23 02:17:46;;;;;;;6.57;5.27;;;;;;;;;;5000408;28;20013;-58
2022/02/23 02:20:11;;;;;;;6.50;5.20;;;;;;;;;;5000129;28;20363;-57
2022/02/23 02:22:37;;;;;;;6.72;5.18;;;;;;;;;;4982934;28;20654;-57
2022/02/23 02:25:02;;;;;;;6.57;4.97;;;;;;;;;;5000345;28;20076;-59
2022/02/23 02:27:27;;;;;;;7.00;5.43;;;;;;;;;;4982109;28;20029;-57
2022/02/23 02:29:53;;;;;;;6.30;4.80;;;;;;;;;;5000575;28;20454;-57
2022/02/23 02:32:18;;;;;;;7.80;5.47;;;;;;;;;;5000230;28;20459;-59
2022/02/23 02:34:46;;;;;;;6.05;4.80;;;;;;;;;;5000138;28;20029;-57
2022/02/23 02:37:12;;;;;;;6.85;5.10;;;;;;;;;;5001003;28;20077;-57
2022/02/23 02:39:37;;;;;;;6.75;5.20;;;;;;;;;;5000442;28;20528;-57
2022/02/23 02:42:02;;;;;;;5.83;4.63;;;;;;;;;;5000201;28;20072;-57
2022/02/23 02:44:28;;;;;;;5.95;4.78;;;;;;;;;;5000758;28;20273;-57
2022/02/23 02:46:53;;;;;;;5.60;4.60;;;;;;;;;;5000306;28;20547;-57
2022/02/23 02:49:18;;;;;;;6.20;4.90;;;;;;;;;;4999658;28;20909;-57
2022/02/23 02:51:43;;;;;;;6.55;4.90;;;;;;;;;;4999996;28;20423;-57
2022/02/23 02:54:09;;;;;;;6.53;5.00;;;;;;;;;;5000020;28;20022;-57
2022/02/23 02:56:34;;;;;;;6.33;4.73;;;;;;;;;;4989594;28;20049;-57
2022/02/23 02:58:59;;;;;;;6.20;4.65;;;;;;;;;;4994925;28;20287;-57
2022/02/23 03:01:25;;;;;;;6.37;5.07;;;;;;;;;;4983122;28;20498;-57
2022/02/23 03:03:50;;;;;;;7.07;5.13;;;;;;;;;;4999722;28;20026;-57
2022/02/23 03:06:16;;;;;;;6.00;4.80;;;;;;;;;;4991882;28;20030;-57
2022/02/23 03:08:41;;;;;;;6.45;4.75;;;;;;;;;;4980779;28;20030;-58
2022/02/23 03:11:07;;;;;;;4.95;4.18;;;;;;;;;;4995513;28;20095;-58
2022/02/23 03:13:32;;;;;;;5.93;4.63;;;;;;;;;;4999218;28;20036;-58
2022/02/23 03:15:57;;;;;;;5.83;4.47;;;;;;;;;;4994244;28;20430;-58
2022/02/23 03:18:22;;;;;;;6.63;4.67;;;;;;;;;;4989695;28;20330;-58
2022/02/23 03:20:48;;;;;;;5.53;4.33;;;;;;;;;;4999627;28;20792;-58
2022/02/23 03:23:13;;;;;;;6.17;4.80;;;;;;;;;;5000028;28;20529;-58
2022/02/23 03:25:38;;;;;;;5.65;4.50;;;;;;;;;;4999732;28;20523;-58
2022/02/23 03:28:03;;;;;;;6.40;4.70;;;;;;;;;;4999359;28;20022;-59
2022/02/23 03:30:29;;;;;;;5.70;4.20;;;;;;;;;;4999869;28;20026;-58
2022/02/23 03:32:54;;;;;;;5.83;4.37;;;;;;;;;;4999310;28;20308;-59
2022/02/23 03:35:22;;;;;;;6.57;4.67;;;;;;;;;;4999804;28;20275;-58
2022/02/23 03:37:47;;;;;;;5.93;4.63;;;;;;;;;;5003000;28;20285;-58
2022/02/23 03:40:12;;;;;;;7.30;4.60;;;;;;;;;;5003178;28;20088;-58
2022/02/23 03:42:38;;;;;;;5.73;4.93;;;;;;;;;;5003024;28;20022;-58
2022/02/23 03:45:03;;;;;;;6.67;4.93;;;;;;;;;;5003153;28;20080;-58
2022/02/23 03:47:28;;;;;;;6.18;4.90;;;;;;;;;;5002774;28;20281;-58
2022/02/23 03:49:53;;;;;;;5.60;4.80;;;;;;;;;;5003551;28;20108;-58
2022/02/23 03:52:21;;;;;;;6.38;4.95;;;;;;;;;;5002945;28;20379;-57
2022/02/23 03:54:46;;;;;;;5.93;4.55;;;;;;;;;;5003350;28;20029;-58
2022/02/23 03:57:11;;;;;;;6.37;4.77;;;;;;;;;;4991802;28;20416;-58
2022/02/23 03:59:36;;;;;;;6.30;4.43;;;;;;;;;;4980696;28;20480;-58
2022/02/23 04:02:02;;;;;;;5.47;4.43;;;;;;;;;;5002994;28;20771;-58
2022/02/23 04:04:27;;;;;;;5.60;4.47;;;;;;;;;;5002610;28;20248;-57
2022/02/23 04:06:52;;;;;;;5.17;3.93;;;;;;;;;;5003222;28;20500;-58
2022/02/23 04:09:17;;;;;;;5.80;4.47;;;;;;;;;;4986737;28;20091;-58
2022/02/23 04:11:43;;;;;;;5.03;3.90;;;;;;;;;;5002468;28;20029;-58
2022/02/23 04:14:08;;;;;;;5.45;4.50;;;;;;;;;;4985101;28;20022;-58
2022/02/23 04:16:33;;;;;;;4.70;4.03;;;;;;;;;;5002784;28;20030;-58
2022/02/23 04:18:59;;;;;;;4.93;4.07;;;;;;;;;;5002430;28;20025;-58
2022/02/23 04:21:24;;;;;;;5.30;4.40;;;;;;;;;;4983611;28;20048;-58
2022/02/23 04:23:49;;;;;;;5.90;4.30;;;;;;;;;;4965101;28;20277;-58
2022/02/23 04:26:16;;;;;;;4.80;3.83;;;;;;;;;;4991140;28;20047;-57
2022/02/23 04:28:41;;;;;;;4.85;3.72;;;;;;;;;;5002531;28;20112;-58
2022/02/23 04:31:07;;;;;;;4.53;3.75;;;;;;;;;;4981026;28;20439;-57
2022/02/23 04:33:32;;;;;;;5.25;3.90;;;;;;;;;;5000910;28;20041;-57
2022/02/23 04:35:57;;;;;;;4.90;3.90;;;;;;;;;;5002467;28;20014;-57
2022/02/23 04:38:22;;;;;;;5.13;3.72;;;;;;;;;;5002601;28;20036;-58
2022/02/23 04:40:48;;;;;;;4.72;3.60;;;;;;;;;;4990066;28;20100;-58
2022/02/23 04:43:13;;;;;;;4.15;3.40;;;;;;;;;;4997794;28;20044;-57
2022/02/23 04:45:38;;;;;;;4.78;3.45;;;;;;;;;;5002691;28;20052;-58
2022/02/23 04:48:04;;;;;;;4.30;3.57;;;;;;;;;;5001257;28;20053;-57
2022/02/23 04:50:29;;;;;;;4.78;3.50;;;;;;;;;;5001604;28;20282;-58
2022/02/23 04:52:54;;;;;;;4.30;3.27;;;;;;;;;;4997802;28;20030;-57
2022/02/23 04:55:20;;;;;;;4.27;3.33;;;;;;;;;;4984037;28;20293;-58
2022/02/23 04:57:45;;;;;;;3.75;3.05;;;;;;;;;;4981871;28;20320;-60
2022/02/23 05:00:11;;;;;;;4.10;3.10;;;;;;;;;;4983468;28;20034;-60
2022/02/23 05:02:36;;;;;;;4.55;3.50;;;;;;;;;;4981099;28;20113;-59
2022/02/23 05:05:01;;;;;;;4.00;3.10;;;;;;;;;;4980960;28;20559;-59
2022/02/23 05:07:26;;;;;;;4.45;3.17;;;;;;;;;;4981360;28;20381;-60
2022/02/23 05:09:52;;;;;;;4.95;3.45;;;;;;;;;;4981330;28;20543;-60
2022/02/23 05:12:17;;;;;;;4.47;3.70;;;;;;;;;;4985691;28;20038;-60
2022/02/23 05:14:43;;;;;;;4.05;3.00;;;;;;;;;;4981419;28;20047;-59
2022/02/23 05:17:08;;;;;;;4.65;3.45;;;;;;;;;;4980475;28;20025;-60
2022/02/23 05:19:34;;;;;;;4.35;2.97;;;;;;;;;;4991512;28;20045;-56
2022/02/23 05:22:00;;;;;;;3.65;3.03;;;;;;;;;;4991517;28;20034;-57
2022/02/23 05:24:25;;;;;;;4.22;3.08;;;;;;;;;;4991139;28;20068;-56
2022/02/23 05:26:50;;;;;;;3.67;2.97;;;;;;;;;;4991170;28;20029;-56
2022/02/23 05:29:16;;;;;;;4.20;3.20;;;;;;;;;;4992721;28;20389;-57
2022/02/23 05:31:41;;;;;;;4.47;3.30;;;;;;;;;;5000657;28;20041;-58
2022/02/23 05:34:06;;;;;;;3.70;2.97;;;;;;;;;;4999973;28;20281;-57
2022/02/23 05:36:32;;;;;;;4.18;3.20;;;;;;;;;;4967632;28;20775;-57
2022/02/23 05:38:57;;;;;;;3.50;3.07;;;;;;;;;;4994772;28;20022;-58
2022/02/23 05:41:22;;;;;;;3.80;3.20;;;;;;;;;;4982726;28;20038;-58
2022/02/23 05:43:47;;;;;;;4.35;3.10;;;;;;;;;;4990745;28;20011;-57
2022/02/23 05:46:12;;;;;;;3.57;2.90;;;;;;;;;;5000848;28;20100;-58
2022/02/23 05:48:38;;;;;;;3.30;2.80;;;;;;;;;;5001542;28;20288;-59
2022/02/23 05:51:03;;;;;;;3.17;2.70;;;;;;;;;;5001083;28;20033;-59
2022/02/23 05:53:28;;;;;;;3.30;2.80;;;;;;;;;;4980926;28;20305;-57
2022/02/23 05:55:53;;;;;;;4.10;3.00;;;;;;;;;;5000962;28;20261;-58
2022/02/23 05:58:19;;;;;;;3.07;2.60;;;;;;;;;;5000503;28;20342;-59
2022/02/23 06:00:44;;;;;;;3.65;2.63;;;;;;;;;;5000603;28;20044;-59
2022/02/23 06:03:10;;;;;;;3.33;2.70;;;;;;;;;;5000095;28;20685;-58
2022/02/23 06:05:35;;;;;;;3.92;2.90;;;;;;;;;;5000440;28;20041;-56
2022/02/23 06:08:01;;;;;;;3.58;2.75;;;;;;;;;;5001387;28;20098;-58
2022/02/23 06:10:27;;;;;;;4.03;2.50;;;;;;;;;;5001423;28;20401;-60
2022/02/23 06:12:53;;;;;;;3.70;2.90;;;;;;;;;;5000093;28;20559;-60
2022/02/23 06:15:18;;;;;;;3.28;2.40;;;;;;;;;;4982851;28;20108;-60
2022/02/23 06:17:43;;;;;;;3.83;2.70;;;;;;;;;;4986307;28;20034;-57
2022/02/23 06:20:09;;;;;;;3.80;2.87;;;;;;;;;;4999539;28;20163;-62
2022/02/23 06:22:34;;;;;;;3.15;2.58;;;;;;;;;;4991256;28;20140;-60
2022/02/23 06:24:59;;;;;;;3.10;2.60;;;;;;;;;;5000600;28;20072;-59
2022/02/23 06:27:24;;;;;;;3.47;3.00;;;;;;;;;;5000188;28;20034;-56
2022/02/23 06:29:50;;;;;;;3.17;2.60;;;;;;;;;;5001034;28;20264;-56
2022/02/23 06:32:15;;;;;;;3.35;2.50;;;;;;;;;;5000993;28;20305;-58
2022/02/23 06:34:40;;;;;;;2.90;2.30;;;;;;;;;;4999554;28;20021;-54
2022/02/23 06:37:06;;;;;;;2.87;2.53;;;;;;;;;;4999625;28;20029;-60
2022/02/23 06:39:32;;;;;;;3.15;2.40;;;;;;;;;;4988974;28;20658;-55
2022/02/23 06:41:57;;;;;;;2.97;2.40;;;;;;;;;;4998800;28;20018;-59
2022/02/23 06:44:23;;;;;;;3.13;2.30;;;;;;;;;;4999778;28;20034;-57
2022/02/23 06:46:48;;;;;;;3.15;2.45;;;;;;;;;;5000261;28;20161;-58
2022/02/23 06:49:13;;;;;;;3.00;2.60;;;;;;;;;;4999810;28;20508;-59
2022/02/23 06:51:40;;;;;;;2.97;2.40;;;;;;;;;;4997261;28;20531;-57
2022/02/23 06:54:05;;;;;;;3.35;2.28;;;;;;;;;;4968721;28;20659;-56
2022/02/23 06:56:31;;;;;;;3.00;2.33;;;;;;;;;;4999438;28;20026;-57
2022/02/23 06:58:56;;;;;;;2.88;2.33;;;;;;;;;;5000060;28;20112;-58
2022/02/23 07:01:21;;;;;;;3.47;2.50;;;;;;;;;;4995561;28;20029;-61
2022/02/23 07:03:47;;;;;;;3.00;2.45;;;;;;;;;;4983751;28;20037;-58
2022/02/23 07:06:15;;;;;;;3.10;2.15;;;;;;;;;;4984327;28;20204;-59
2022/02/23 07:08:45;;;;;;;3.97;2.55;;;;;;;;;;4980001;28;20106;-58
2022/02/23 07:11:10;;;;;;;2.75;2.03;;;;;;;;;;4980213;28;20019;-58
2022/02/23 07:13:35;;;;;;;2.75;2.20;;;;;;;;;;4984113;28;20030;-58
2022/02/23 07:16:00;;;;;;;3.00;2.20;;;;;;;;;;4985125;28;20022;-58
2022/02/23 07:18:28;;;;;;;2.85;2.50;;;;;;;;;;4995221;28;20700;-57
2022/02/23 07:20:53;;;;;;;3.55;2.55;;;;;;;;;;5001266;28;20096;-56
2022/02/23 07:23:18;;;;;;;2.50;1.87;;;;;;;;;;4999060;28;20061;-56
2022/02/23 07:25:44;;;;;;;3.93;2.13;;;;;;;;;;5003538;28;20054;-57
2022/02/23 07:28:09;;;;;;;3.08;2.03;;;;;;;;;;4995036;28;20273;-57
2022/02/23 07:30:34;;;;;;;3.20;2.40;;;;;;;;;;5000847;28;20511;-57
2022/02/23 07:32:59;;;;;;;3.33;2.10;;;;;;;;;;5002607;28;20125;-57
2022/02/23 07:35:27;;;;;;;3.22;2.35;;;;;;;;;;4987731;28;20022;-56
2022/02/23 07:37:54;;;;;;;2.88;2.20;;;;;;;;;;4996461;28;20512;-56
2022/02/23 07:40:20;;;;;;;2.83;2.15;;;;;;;;;;4985697;28;20105;-56
2022/02/23 07:42:46;;;;;;;4.28;2.22;;;;;;;;;;5002718;28;20124;-56
2022/02/23 07:45:11;;;;;;;2.65;2.15;;;;;;;;;;5003306;28;20514;-57
2022/02/23 07:47:37;;;;;;;3.65;2.17;;;;;;;;;;4983726;28;20093;-57
2022/02/23 07:50:02;;;;;;;2.70;2.10;;;;;;;;;;5002500;28;20108;-57
2022/02/23 07:52:29;;;;;;;2.90;2.20;;;;;;;;;;5002753;28;20038;-57
2022/02/23 07:54:54;;;;;;;3.00;2.10;;;;;;;;;;5001631;28;20030;-56
2022/02/23 07:57:20;;;;;;;2.73;2.10;;;;;;;;;;5002257;28;20458;-58
2022/02/23 07:59:45;;;;;;;3.30;2.20;;;;;;;;;;5001902;28;20299;-55
2022/02/23 08:02:10;;;;;;;3.13;2.13;;;;;;;;;;5002834;28;20029;-57
2022/02/23 08:04:35;;;;;;;3.13;2.05;;;;;;;;;;4996565;28;20042;-59
2022/02/23 08:07:01;;;;;;;4.18;2.03;;;;;;;;;;4988708;28;20064;-57
2022/02/23 08:09:26;;;;;;;3.50;2.20;;;;;;;;;;4988040;28;20416;-58
2022/02/23 08:11:52;;;;;;;3.05;2.28;;;;;;;;;;4982597;28;20042;-57
2022/02/23 08:14:17;;;;;;;4.35;2.08;;;;;;;;;;4982780;28;20316;-57
2022/02/23 08:19:35;;;;;;;3.92;2.30;;;;;;;;;;4983237;28;20276;-57
2022/02/23 08:22:03;;;;;;;2.47;1.92;;;;;;;;;;4984716;28;20025;-57
2022/02/23 08:24:28;;;;;;;2.80;2.00;;;;;;;;;;4983783;28;20018;-60
2022/02/23 08:26:54;;;;;;;2.83;1.85;;;;;;;;;;4983472;28;20026;-57
2022/02/23 08:29:20;;;;;;;2.50;2.00;;;;;;;;;;4985636;28;20482;-57
2022/02/23 08:31:45;;;;;;;3.78;2.20;;;;;;;;;;4983586;28;20108;-58
2022/02/23 08:34:10;;;;;;;3.23;2.13;;;;;;;;;;4982449;28;20117;-57
2022/02/23 08:36:36;;;;;;;2.75;2.15;;;;;;;;;;4982928;28;20121;-58
2022/02/23 08:39:02;;;;;;;3.55;2.13;;;;;;;;;;4982844;28;20026;-57
2022/02/23 08:41:28;;;;;;;3.35;2.38;;;;;;;;;;4982760;28;20030;-57
2022/02/23 08:43:53;;;;;;;2.50;1.83;;;;;;;;;;4983417;28;20026;-58
2022/02/23 08:46:18;;;;;;;2.67;2.03;;;;;;;;;;4983497;28;20037;-57
2022/02/23 08:48:44;;;;;;;2.92;2.15;;;;;;;;;;4982234;28;20088;-58
2022/02/23 08:51:09;;;;;;;2.63;1.87;;;;;;;;;;4982807;28;20030;-57
2022/02/23 08:53:34;;;;;;;2.83;1.97;;;;;;;;;;4983006;28;20117;-57
2022/02/23 08:55:59;;;;;;;3.97;2.00;;;;;;;;;;4980069;28;20109;-57
2022/02/23 08:58:24;;;;;;;2.70;2.07;;;;;;;;;;4984867;28;20034;-57
2022/02/23 09:00:51;;;;;;;3.10;1.90;;;;;;;;;;4982714;28;20277;-57
2022/02/23 09:03:16;;;;;;;2.90;2.03;;;;;;;;;;4998036;28;20272;-57
2022/02/23 09:05:41;;;;;;;6.05;2.00;;;;;;;;;;4999116;28;20475;-57
2022/02/23 09:08:07;;;;;;;2.77;1.90;;;;;;;;;;4987848;28;20022;-58
2022/02/23 09:10:32;;;;;;;3.27;1.90;;;;;;;;;;5002326;28;20042;-57
2022/02/23 09:12:57;;;;;;;3.27;2.20;;;;;;;;;;4999180;28;20347;-57
2022/02/23 09:15:22;;;;;;;3.78;2.13;;;;;;;;;;4988989;28;20472;-57
2022/02/23 09:17:48;;;;;;;3.17;2.00;;;;;;;;;;5001362;28;20488;-58
2022/02/23 09:20:13;;;;;;;4.23;2.00;;;;;;;;;;5001242;28;20698;-57
2022/02/23 09:22:38;;;;;;;3.47;1.73;;;;;;;;;;5001803;28;20307;-58
2022/02/23 09:25:06;;;;;;;2.60;2.03;;;;;;;;;;5001570;28;20036;-57
2022/02/23 09:27:32;;;;;;;3.15;2.00;;;;;;;;;;5001359;28;20280;-58
2022/02/23 09:29:57;;;;;;;3.83;2.00;;;;;;;;;;4997079;28;20080;-57
2022/02/23 09:32:22;;;;;;;2.63;1.80;;;;;;;;;;4980856;28;20065;-57
2022/02/23 09:34:48;;;;;;;3.63;2.30;;;;;;;;;;4982186;28;20266;-57
2022/02/23 09:37:14;;;;;;;3.53;1.98;;;;;;;;;;4981492;28;20030;-57
2022/02/23 09:39:39;;;;;;;3.60;2.28;;;;;;;;;;4982701;28;20049;-56
2022/02/23 09:42:04;;;;;;;3.10;2.23;;;;;;;;;;4983744;28;20022;-56
2022/02/23 09:44:30;;;;;;;3.35;2.22;;;;;;;;;;4985714;28;20018;-57
2022/02/23 09:46:56;;;;;;;3.95;2.13;;;;;;;;;;4983266;28;20135;-56
2022/02/23 09:49:21;;;;;;;3.23;1.80;;;;;;;;;;4948129;28;20074;-57
2022/02/23 09:51:47;;;;;;;3.00;2.07;;;;;;;;;;4964442;28;20289;-58
2022/02/23 09:54:12;;;;;;;3.03;2.03;;;;;;;;;;4960588;28;20274;-57
2022/02/23 09:56:39;;;;;;;3.35;2.10;;;;;;;;;;4966166;28;20034;-58
2022/02/23 09:59:05;;;;;;;2.85;2.10;;;;;;;;;;4965086;28;20023;-57
2022/02/23 10:01:32;;;;;;;3.15;2.20;;;;;;;;;;4963531;28;20497;-57
2022/02/23 10:03:57;;;;;;;4.03;2.22;;;;;;;;;;4960443;28;20486;-57
2022/02/23 10:06:27;;;;;;;3.85;2.13;;;;;;;;;;4969304;28;20109;-57
2022/02/23 10:08:59;;;;;;;3.53;2.03;;;;;;;;;;4959013;28;20019;-56
2022/02/23 10:11:24;;;;;;;3.60;2.30;;;;;;;;;;4973051;28;20824;-57
2022/02/23 10:13:50;;;;;;;3.30;2.10;;;;;;;;;;4963250;28;20038;-57
2022/02/23 10:16:15;;;;;;;4.40;2.05;;;;;;;;;;4981210;28;20030;-59
2022/02/23 10:18:40;;;;;;;3.03;2.00;;;;;;;;;;4990170;28;20029;-57
2022/02/23 10:21:06;;;;;;;3.17;2.07;;;;;;;;;;4956561;28;20266;-57
2022/02/23 10:23:31;;;;;;;2.77;1.90;;;;;;;;;;4961566;28;20060;-57
2022/02/23 10:25:58;;;;;;;4.17;2.40;;;;;;;;;;4961273;28;20034;-59
2022/02/23 10:28:27;;;;;;;3.22;2.17;;;;;;;;;;4944182;28;20701;-57
2022/02/23 10:30:57;;;;;;;3.25;2.10;;;;;;;;;;4961443;28;20035;-57
2022/02/23 10:33:30;;;;;;;3.45;2.03;;;;;;;;;;4967366;28;20096;-57
2022/02/23 10:36:02;;;;;;;4.93;2.22;;;;;;;;;;4980676;28;20018;-59
2022/02/23 10:38:41;;;;;;;3.95;2.50;;;;;;;;;;4986003;28;20065;-57
2022/02/23 10:41:07;;;;;;;3.83;2.30;;;;;;;;;;4979729;28;20014;-57
2022/02/23 10:43:36;;;;;;;4.35;2.45;;;;;;;;;;4980305;28;20387;-57
2022/02/23 10:46:15;;;;;;;2.85;2.03;;;;;;;;;;4980907;28;20018;-56
2022/02/23 10:48:40;;;;;;;3.93;2.50;;;;;;;;;;4972576;28;20525;-61
2022/02/23 10:51:06;;;;;;;5.13;3.10;;;;;;;;;;4999997;28;20061;-58
2022/02/23 10:53:32;;;;;;;5.15;3.35;;;;;;;;;;4999546;28;20596;-59
2022/02/23 10:55:58;;;;;;;6.13;3.25;;;;;;;;;;4984436;28;20109;-62
2022/02/23 10:58:24;;;;;;;9.10;3.92;;;;;;;;;;5003091;28;20029;-56
2022/02/23 11:00:50;;;;;;;8.15;3.72;;;;;;;;;;4991565;28;20061;-58
2022/02/23 11:03:18;;;;;;;8.98;4.30;;;;;;;;;;4994769;28;20598;-58
2022/02/23 11:05:47;;;;;;;9.32;4.13;;;;;;;;;;4999859;28;20697;-59
2022/02/23 11:08:14;;;;;;;6.47;3.60;;;;;;;;;;5000257;28;20153;-58
2022/02/23 11:10:43;;;;;;;7.28;3.67;;;;;;;;;;4982688;28;20030;-60
2022/02/23 11:13:09;;;;;;;5.47;3.45;;;;;;;;;;4999660;28;20368;-61
2022/02/23 11:15:35;;;;;;;6.68;3.42;;;;;;;;;;4979537;28;20501;-59
2022/02/23 11:18:00;;;;;;;6.75;3.50;;;;;;;;;;4976949;28;20485;-56
2022/02/23 11:20:28;;;;;;;8.00;3.40;;;;;;;;;;4985613;28;20408;-58
2022/02/23 11:22:56;;;;;;;6.40;3.90;;;;;;;;;;4992659;28;20296;-60
2022/02/23 11:25:22;;;;;;;7.30;3.67;;;;;;;;;;5000420;28;20025;-59
2022/02/23 11:27:49;;;;;;;7.00;4.22;;;;;;;;;;4982135;28;20468;-57
2022/02/23 11:30:16;;;;;;;6.25;3.13;;;;;;;;;;4982544;28;20025;-60
2022/02/23 11:32:42;;;;;;;4.75;3.00;;;;;;;;;;4983268;28;20030;-60
2022/02/23 11:35:07;;;;;;;6.65;3.40;;;;;;;;;;4999881;28;20028;-59
2022/02/23 11:37:33;;;;;;;5.50;3.25;;;;;;;;;;4999625;28;20034;-61
2022/02/23 11:39:58;;;;;;;5.25;3.10;;;;;;;;;;5013587;28;20083;-57
2022/02/23 11:42:24;;;;;;;4.75;2.85;;;;;;;;;;4987583;28;20038;-60
2022/02/23 11:44:52;;;;;;;5.53;3.60;;;;;;;;;;5000861;28;20022;-57
2022/02/23 11:47:19;;;;;;;6.10;3.30;;;;;;;;;;5000447;28;20018;-59
2022/02/23 11:49:58;;;;;;;6.53;3.50;;;;;;;;;;4984416;28;20042;-59
2022/02/23 11:52:24;;;;;;;4.45;2.90;;;;;;;;;;4981898;28;20041;-57
2022/02/23 11:55:08;;;;;;;4.25;2.70;;;;;;;;;;4999855;28;20141;-58
2022/02/23 11:57:48;;;;;;;4.50;2.70;;;;;;;;;;5001030;28;20026;-58
2022/02/23 12:00:15;;;;;;;5.30;2.78;;;;;;;;;;5003941;28;20029;-58
2022/02/23 12:02:40;;;;;;;5.00;2.70;;;;;;;;;;5003757;28;20476;-60
2022/02/23 12:05:06;;;;;;;4.93;2.92;;;;;;;;;;4997567;28;20046;-58
2022/02/23 12:07:43;;;;;;;5.45;2.90;;;;;;;;;;4985327;28;20030;-58
2022/02/23 12:10:09;;;;;;;4.78;3.00;;;;;;;;;;4985790;28;20034;-59
2022/02/23 12:12:35;;;;;;;4.03;2.60;;;;;;;;;;4984709;28;20455;-59
2022/02/23 12:15:03;;;;;;;5.10;2.58;;;;;;;;;;4985000;28;20018;-57
2022/02/23 12:17:47;;;;;;;5.65;3.10;;;;;;;;;;4985111;28;20136;-59
2022/02/23 12:20:31;;;;;;;4.63;2.83;;;;;;;;;;4988899;28;20065;-58
2022/02/23 12:23:03;;;;;;;4.80;2.60;;;;;;;;;;5003227;28;20035;-58
2022/02/23 12:25:47;;;;;;;5.45;3.00;;;;;;;;;;5002780;28;20481;-60
2022/02/23 12:28:13;;;;;;;4.85;2.92;;;;;;;;;;5002898;28;20053;-59
2022/02/23 12:30:41;;;;;;;4.35;2.60;;;;;;;;;;4993838;28;20096;-58
2022/02/23 12:33:12;;;;;;;4.35;2.58;;;;;;;;;;4985093;28;20044;-59
2022/02/23 12:35:37;;;;;;;5.85;3.25;;;;;;;;;;4992998;28;20146;-59
2022/02/23 12:38:02;;;;;;;4.33;2.83;;;;;;;;;;4989199;28;20060;-57
2022/02/23 12:40:27;;;;;;;4.73;2.87;;;;;;;;;;5014846;28;20261;-58
2022/02/23 12:43:02;;;;;;;5.87;3.97;;;;;;;;;;4992200;28;20503;-58
2022/02/23 12:45:28;;;;;;;5.13;3.40;;;;;;;;;;4989078;28;20272;-59
2022/02/23 12:47:54;;;;;;;5.80;3.70;;;;;;;;;;4999295;28;20054;-59
2022/02/23 12:50:24;;;;;;;5.93;3.65;;;;;;;;;;4982324;28;20612;-59
2022/02/23 12:52:50;;;;;;;7.15;3.70;;;;;;;;;;4983002;28;20038;-60
2022/02/23 12:55:18;;;;;;;5.65;3.63;;;;;;;;;;4982730;28;20068;-59
2022/02/23 12:57:43;;;;;;;5.80;3.70;;;;;;;;;;4985798;28;20026;-59
2022/02/23 13:00:09;;;;;;;5.95;3.72;;;;;;;;;;5017117;28;20381;-58
2022/02/23 13:02:34;;;;;;;5.80;4.25;;;;;;;;;;5002290;28;20076;-59
2022/02/23 13:04:59;;;;;;;5.38;3.72;;;;;;;;;;5001781;28;20013;-59
2022/02/23 13:07:25;;;;;;;5.63;3.87;;;;;;;;;;5001721;28;20507;-57
2022/02/23 13:09:51;;;;;;;6.57;4.60;;;;;;;;;;5001142;28;20264;-58
2022/02/23 13:12:17;;;;;;;6.82;4.38;;;;;;;;;;4991186;28;20289;-58
2022/02/23 13:14:46;;;;;;;7.70;5.13;;;;;;;;;;4982187;28;20080;-59
2022/02/23 13:17:12;;;;;;;6.68;4.57;;;;;;;;;;4983250;28;20288;-59
2022/02/23 13:19:38;;;;;;;6.55;4.32;;;;;;;;;;4981040;28;20026;-60
2022/02/23 13:22:13;;;;;;;6.13;4.22;;;;;;;;;;4986138;28;20026;-60
2022/02/23 13:24:42;;;;;;;5.97;4.00;;;;;;;;;;4991424;28;20058;-60
2022/02/23 13:27:13;;;;;;;7.45;4.80;;;;;;;;;;4982456;28;20547;-59
2022/02/23 13:29:39;;;;;;;7.07;4.90;;;;;;;;;;4981736;28;20455;-59
2022/02/23 13:32:05;;;;;;;6.47;4.50;;;;;;;;;;4987794;28;20021;-59
2022/02/23 13:34:36;;;;;;;6.70;4.88;;;;;;;;;;5001932;28;20061;-58
2022/02/23 13:37:08;;;;;;;6.78;5.25;;;;;;;;;;5001981;28;20508;-60
2022/02/23 13:39:39;;;;;;;7.30;5.05;;;;;;;;;;5001062;28;20152;-60
2022/02/23 13:42:06;;;;;;;8.05;5.43;;;;;;;;;;5000846;28;20025;-60
2022/02/23 13:44:34;;;;;;;7.68;5.40;;;;;;;;;;5001562;28;20491;-58
2022/02/23 13:47:10;;;;;;;7.57;5.45;;;;;;;;;;4993001;28;20488;-61
2022/02/23 13:49:52;;;;;;;7.53;5.50;;;;;;;;;;4978993;28;20046;-60
2022/02/23 13:52:18;;;;;;;6.97;5.40;;;;;;;;;;4991145;28;20137;-59
2022/02/23 13:54:43;;;;;;;9.05;5.63;;;;;;;;;;4963753;28;20029;-65
2022/02/23 13:57:12;;;;;;;8.47;5.77;;;;;;;;;;4963861;28;20014;-60
2022/02/23 13:59:38;;;;;;;8.45;5.97;;;;;;;;;;4982303;28;20364;-61
2022/02/23 14:02:04;;;;;;;8.27;5.80;;;;;;;;;;4979207;28;20074;-62
2022/02/23 14:04:43;;;;;;;6.90;5.40;;;;;;;;;;4994018;28;20049;-61
2022/02/23 14:07:08;;;;;;;7.40;5.13;;;;;;;;;;5000483;28;20021;-59
2022/02/23 14:09:37;;;;;;;7.43;5.20;;;;;;;;;;5000686;28;20057;-59
2022/02/23 14:12:03;;;;;;;7.93;5.70;;;;;;;;;;5000382;28;20030;-62
2022/02/23 14:14:34;;;;;;;9.35;5.75;;;;;;;;;;5000231;28;20033;-58
2022/02/23 14:16:59;;;;;;;8.23;5.30;;;;;;;;;;4990841;28;20029;-64
2022/02/23 14:19:27;;;;;;;9.07;5.87;;;;;;;;;;4958940;28;20069;-58
2022/02/23 14:21:57;;;;;;;7.78;5.55;;;;;;;;;;4975034;28;20743;-59
2022/02/23 14:24:26;;;;;;;9.00;5.80;;;;;;;;;;4979599;28;20022;-58
2022/02/23 14:26:54;;;;;;;9.18;5.90;;;;;;;;;;4979894;28;20034;-56
2022/02/23 14:29:23;;;;;;;7.13;5.43;;;;;;;;;;4979717;28;20018;-58
2022/02/23 14:31:53;;;;;;;8.80;6.07;;;;;;;;;;4984566;28;20041;-59
2022/02/23 14:34:25;;;;;;;7.75;5.65;;;;;;;;;;4979080;28;20034;-58
2022/02/23 14:36:51;;;;;;;7.57;5.55;;;;;;;;;;4984964;28;20034;-59
2022/02/23 14:39:16;;;;;;;8.77;6.32;;;;;;;;;;4979940;28;20444;-59
2022/02/23 14:41:42;;;;;;;8.32;6.00;;;;;;;;;;4983090;28;20018;-58